sensor_id;sensor_type;location;lat;lon;timestamp;P1;durP1;ratioP1;P2;durP2;ratioP2
18879;SDS011;9572;52.378;13.404;2023-03-12T00:02:17;6.20;;;1.43;;
18879;SDS011;9572;52.378;13.404;2023-03-12T00:04:45;5.13;;;1.60;;
18879;SDS011;9572;52.378;13.404;2023-03-12T00:07:12;3.53;;;1.10;;
18879;SDS011;9572;52.378;13.404;2023-03-12T00:09:40;2.73;;;1.20;;
18879;SDS011;9572;52.378;13.404;2023-03-12T00:12:09;2.97;;;1.03;;
18879;SDS011;9572;52.378;13.404;2023-03-12T00:14:38;6.50;;;1.50;;
18879;SDS011;9572;52.378;13.404;2023-03-12T00:17:05;1.23;;;1.00;;
18879;SDS011;9572;52.378;13.404;2023-03-12T00:19:32;3.73;;;1.13;;
18879;SDS011;9572;52.378;13.404;2023-03-12T00:21:59;1.83;;;1.20;;
18879;SDS011;9572;52.378;13.404;2023-03-12T00:24:26;6.13;;;1.37;;
18879;SDS011;9572;52.378;13.404;2023-03-12T00:26:54;5.73;;;1.40;;
18879;SDS011;9572;52.378;13.404;2023-03-12T00:29:21;3.97;;;1.27;;
18879;SDS011;9572;52.378;13.404;2023-03-12T00:31:47;4.13;;;1.80;;
18879;SDS011;9572;52.378;13.404;2023-03-12T00:34:15;2.90;;;1.50;;
18879;SDS011;9572;52.378;13.404;2023-03-12T00:36:42;4.30;;;1.40;;
18879;SDS011;9572;52.378;13.404;2023-03-12T00:39:09;4.53;;;1.30;;
18879;SDS011;9572;52.378;13.404;2023-03-12T00:41:36;4.73;;;1.50;;
18879;SDS011;9572;52.378;13.404;2023-03-12T00:44:04;6.33;;;1.63;;
18879;SDS011;9572;52.378;13.404;2023-03-12T00:46:31;2.23;;;1.27;;
18879;SDS011;9572;52.378;13.404;2023-03-12T00:48:58;7.50;;;1.53;;
18879;SDS011;9572;52.378;13.404;2023-03-12T00:51:25;3.20;;;1.23;;
18879;SDS011;9572;52.378;13.404;2023-03-12T00:53:51;3.20;;;1.40;;
18879;SDS011;9572;52.378;13.404;2023-03-12T00:56:20;5.03;;;1.90;;
18879;SDS011;9572;52.378;13.404;2023-03-12T00:58:46;4.30;;;1.50;;
18879;SDS011;9572;52.378;13.404;2023-03-12T01:01:15;6.33;;;1.40;;
18879;SDS011;9572;52.378;13.404;2023-03-12T01:03:42;12.13;;;1.97;;
18879;SDS011;9572;52.378;13.404;2023-03-12T01:06:09;2.40;;;1.30;;
18879;SDS011;9572;52.378;13.404;2023-03-12T01:08:35;2.27;;;0.90;;
18879;SDS011;9572;52.378;13.404;2023-03-12T01:11:02;2.43;;;1.03;;
18879;SDS011;9572;52.378;13.404;2023-03-12T01:13:30;4.17;;;1.30;;
18879;SDS011;9572;52.378;13.404;2023-03-12T01:15:57;4.50;;;1.23;;
18879;SDS011;9572;52.378;13.404;2023-03-12T01:18:25;2.27;;;1.43;;
18879;SDS011;9572;52.378;13.404;2023-03-12T01:20:52;4.97;;;1.03;;
18879;SDS011;9572;52.378;13.404;2023-03-12T01:23:19;6.50;;;1.60;;
18879;SDS011;9572;52.378;13.404;2023-03-12T01:25:46;2.67;;;1.20;;
18879;SDS011;9572;52.378;13.404;2023-03-12T01:28:13;3.20;;;1.23;;
18879;SDS011;9572;52.378;13.404;2023-03-12T01:30:40;4.57;;;1.27;;
18879;SDS011;9572;52.378;13.404;2023-03-12T01:33:07;4.33;;;1.30;;
18879;SDS011;9572;52.378;13.404;2023-03-12T01:35:36;3.17;;;1.60;;
18879;SDS011;9572;52.378;13.404;2023-03-12T01:38:03;3.93;;;1.13;;
18879;SDS011;9572;52.378;13.404;2023-03-12T01:40:32;5.83;;;1.50;;
18879;SDS011;9572;52.378;13.404;2023-03-12T01:43:19;6.97;;;1.40;;
18879;SDS011;9572;52.378;13.404;2023-03-12T01:46:02;1.57;;;1.00;;
18879;SDS011;9572;52.378;13.404;2023-03-12T01:48:39;7.17;;;1.40;;
18879;SDS011;9572;52.378;13.404;2023-03-12T01:51:11;5.70;;;1.70;;
18879;SDS011;9572;52.378;13.404;2023-03-12T01:53:40;3.23;;;1.27;;
18879;SDS011;9572;52.378;13.404;2023-03-12T01:56:10;2.33;;;1.23;;
18879;SDS011;9572;52.378;13.404;2023-03-12T01:58:38;6.00;;;1.50;;
18879;SDS011;9572;52.378;13.404;2023-03-12T02:01:07;5.77;;;1.27;;
18879;SDS011;9572;52.378;13.404;2023-03-12T02:03:34;6.20;;;1.20;;
18879;SDS011;9572;52.378;13.404;2023-03-12T02:06:02;3.97;;;1.30;;
18879;SDS011;9572;52.378;13.404;2023-03-12T02:08:36;4.63;;;1.27;;
18879;SDS011;9572;52.378;13.404;2023-03-12T02:11:06;5.50;;;1.80;;
18879;SDS011;9572;52.378;13.404;2023-03-12T02:13:34;3.70;;;1.30;;
18879;SDS011;9572;52.378;13.404;2023-03-12T02:16:02;4.17;;;1.40;;
18879;SDS011;9572;52.378;13.404;2023-03-12T02:18:31;2.43;;;1.33;;
18879;SDS011;9572;52.378;13.404;2023-03-12T02:21:01;4.73;;;1.20;;
18879;SDS011;9572;52.378;13.404;2023-03-12T02:23:39;7.13;;;1.27;;
18879;SDS011;9572;52.378;13.404;2023-03-12T02:26:13;1.57;;;1.03;;
18879;SDS011;9572;52.378;13.404;2023-03-12T02:28:41;6.23;;;1.40;;
18879;SDS011;9572;52.378;13.404;2023-03-12T02:31:11;2.10;;;1.17;;
18879;SDS011;9572;52.378;13.404;2023-03-12T02:33:40;6.83;;;1.57;;
18879;SDS011;9572;52.378;13.404;2023-03-12T02:36:07;2.97;;;1.37;;
18879;SDS011;9572;52.378;13.404;2023-03-12T02:38:36;5.53;;;1.13;;
18879;SDS011;9572;52.378;13.404;2023-03-12T02:41:09;7.13;;;1.40;;
18879;SDS011;9572;52.378;13.404;2023-03-12T02:43:40;4.70;;;1.20;;
18879;SDS011;9572;52.378;13.404;2023-03-12T02:46:10;1.47;;;1.13;;
18879;SDS011;9572;52.378;13.404;2023-03-12T02:48:38;4.77;;;1.50;;
18879;SDS011;9572;52.378;13.404;2023-03-12T02:51:05;3.83;;;1.40;;
18879;SDS011;9572;52.378;13.404;2023-03-12T02:53:32;4.90;;;1.53;;
18879;SDS011;9572;52.378;13.404;2023-03-12T02:55:59;6.97;;;1.90;;
18879;SDS011;9572;52.378;13.404;2023-03-12T02:58:28;6.13;;;1.70;;
18879;SDS011;9572;52.378;13.404;2023-03-12T03:00:55;4.13;;;1.53;;
18879;SDS011;9572;52.378;13.404;2023-03-12T03:03:23;3.27;;;1.30;;
18879;SDS011;9572;52.378;13.404;2023-03-12T03:05:49;7.53;;;1.40;;
18879;SDS011;9572;52.378;13.404;2023-03-12T03:08:17;3.30;;;1.30;;
18879;SDS011;9572;52.378;13.404;2023-03-12T03:10:43;3.57;;;1.63;;
18879;SDS011;9572;52.378;13.404;2023-03-12T03:13:10;3.90;;;1.70;;
18879;SDS011;9572;52.378;13.404;2023-03-12T03:15:38;6.23;;;1.43;;
18879;SDS011;9572;52.378;13.404;2023-03-12T03:18:05;3.40;;;1.53;;
18879;SDS011;9572;52.378;13.404;2023-03-12T03:20:32;3.63;;;1.33;;
18879;SDS011;9572;52.378;13.404;2023-03-12T03:22:59;4.83;;;1.60;;
18879;SDS011;9572;52.378;13.404;2023-03-12T03:25:26;3.57;;;1.50;;
18879;SDS011;9572;52.378;13.404;2023-03-12T03:27:53;3.80;;;1.60;;
18879;SDS011;9572;52.378;13.404;2023-03-12T03:30:20;5.80;;;1.97;;
18879;SDS011;9572;52.378;13.404;2023-03-12T03:32:48;4.10;;;1.97;;
18879;SDS011;9572;52.378;13.404;2023-03-12T03:35:16;4.97;;;1.97;;
18879;SDS011;9572;52.378;13.404;2023-03-12T03:37:43;3.83;;;1.30;;
18879;SDS011;9572;52.378;13.404;2023-03-12T03:40:11;4.77;;;1.87;;
18879;SDS011;9572;52.378;13.404;2023-03-12T03:42:38;4.27;;;1.90;;
18879;SDS011;9572;52.378;13.404;2023-03-12T03:45:06;5.13;;;1.40;;
18879;SDS011;9572;52.378;13.404;2023-03-12T03:47:34;2.87;;;1.70;;
18879;SDS011;9572;52.378;13.404;2023-03-12T03:50:04;4.03;;;2.40;;
18879;SDS011;9572;52.378;13.404;2023-03-12T03:52:32;6.53;;;2.07;;
18879;SDS011;9572;52.378;13.404;2023-03-12T03:54:58;7.10;;;2.43;;
18879;SDS011;9572;52.378;13.404;2023-03-12T03:57:25;6.40;;;1.97;;
18879;SDS011;9572;52.378;13.404;2023-03-12T03:59:53;13.63;;;2.53;;
18879;SDS011;9572;52.378;13.404;2023-03-12T04:02:20;5.13;;;2.00;;
18879;SDS011;9572;52.378;13.404;2023-03-12T04:04:47;3.63;;;1.83;;
18879;SDS011;9572;52.378;13.404;2023-03-12T04:07:15;6.43;;;2.60;;
18879;SDS011;9572;52.378;13.404;2023-03-12T04:09:42;4.03;;;2.03;;
18879;SDS011;9572;52.378;13.404;2023-03-12T04:12:09;3.77;;;2.13;;
18879;SDS011;9572;52.378;13.404;2023-03-12T04:14:38;9.47;;;2.17;;
18879;SDS011;9572;52.378;13.404;2023-03-12T04:17:05;4.70;;;2.13;;
18879;SDS011;9572;52.378;13.404;2023-03-12T04:19:33;8.17;;;2.40;;
18879;SDS011;9572;52.378;13.404;2023-03-12T04:22:00;4.37;;;2.20;;
18879;SDS011;9572;52.378;13.404;2023-03-12T04:24:29;9.13;;;2.40;;
18879;SDS011;9572;52.378;13.404;2023-03-12T04:26:56;5.30;;;2.30;;
18879;SDS011;9572;52.378;13.404;2023-03-12T04:29:23;4.53;;;2.27;;
18879;SDS011;9572;52.378;13.404;2023-03-12T04:31:50;3.90;;;2.40;;
18879;SDS011;9572;52.378;13.404;2023-03-12T04:34:17;5.97;;;2.53;;
18879;SDS011;9572;52.378;13.404;2023-03-12T04:36:44;5.77;;;2.73;;
18879;SDS011;9572;52.378;13.404;2023-03-12T04:39:11;4.90;;;2.27;;
18879;SDS011;9572;52.378;13.404;2023-03-12T04:41:40;7.47;;;2.57;;
18879;SDS011;9572;52.378;13.404;2023-03-12T04:44:07;5.13;;;2.33;;
18879;SDS011;9572;52.378;13.404;2023-03-12T04:46:34;5.37;;;2.60;;
18879;SDS011;9572;52.378;13.404;2023-03-12T04:49:01;4.77;;;2.40;;
18879;SDS011;9572;52.378;13.404;2023-03-12T04:51:28;6.47;;;2.50;;
18879;SDS011;9572;52.378;13.404;2023-03-12T04:53:56;6.37;;;2.60;;
18879;SDS011;9572;52.378;13.404;2023-03-12T04:56:23;8.00;;;2.83;;
18879;SDS011;9572;52.378;13.404;2023-03-12T04:58:51;5.77;;;2.60;;
18879;SDS011;9572;52.378;13.404;2023-03-12T05:01:20;5.73;;;2.40;;
18879;SDS011;9572;52.378;13.404;2023-03-12T05:03:49;3.97;;;2.57;;
18879;SDS011;9572;52.378;13.404;2023-03-12T05:06:16;4.90;;;2.67;;
18879;SDS011;9572;52.378;13.404;2023-03-12T05:08:43;11.33;;;3.50;;
18879;SDS011;9572;52.378;13.404;2023-03-12T05:11:10;4.60;;;2.93;;
18879;SDS011;9572;52.378;13.404;2023-03-12T05:13:37;7.43;;;2.63;;
18879;SDS011;9572;52.378;13.404;2023-03-12T05:16:06;5.37;;;2.90;;
18879;SDS011;9572;52.378;13.404;2023-03-12T05:18:33;5.77;;;3.40;;
18879;SDS011;9572;52.378;13.404;2023-03-12T05:21:01;6.33;;;3.10;;
18879;SDS011;9572;52.378;13.404;2023-03-12T05:23:31;5.07;;;2.70;;
18879;SDS011;9572;52.378;13.404;2023-03-12T05:25:58;4.30;;;2.50;;
18879;SDS011;9572;52.378;13.404;2023-03-12T05:28:25;5.43;;;3.30;;
18879;SDS011;9572;52.378;13.404;2023-03-12T05:30:53;5.80;;;2.90;;
18879;SDS011;9572;52.378;13.404;2023-03-12T05:33:22;7.90;;;2.80;;
18879;SDS011;9572;52.378;13.404;2023-03-12T05:35:49;5.70;;;2.57;;
18879;SDS011;9572;52.378;13.404;2023-03-12T05:38:16;4.67;;;2.40;;
18879;SDS011;9572;52.378;13.404;2023-03-12T05:40:49;3.90;;;2.50;;
18879;SDS011;9572;52.378;13.404;2023-03-12T05:43:17;6.30;;;2.80;;
18879;SDS011;9572;52.378;13.404;2023-03-12T05:45:44;6.83;;;2.60;;
18879;SDS011;9572;52.378;13.404;2023-03-12T05:48:11;4.20;;;2.30;;
18879;SDS011;9572;52.378;13.404;2023-03-12T05:50:39;5.93;;;2.47;;
18879;SDS011;9572;52.378;13.404;2023-03-12T05:53:06;7.13;;;2.40;;
18879;SDS011;9572;52.378;13.404;2023-03-12T05:55:33;4.13;;;2.30;;
18879;SDS011;9572;52.378;13.404;2023-03-12T05:58:01;9.10;;;2.57;;
18879;SDS011;9572;52.378;13.404;2023-03-12T06:00:28;7.73;;;2.90;;
18879;SDS011;9572;52.378;13.404;2023-03-12T06:02:55;7.68;;;3.00;;
18879;SDS011;9572;52.378;13.404;2023-03-12T06:05:22;6.40;;;2.30;;
18879;SDS011;9572;52.378;13.404;2023-03-12T06:07:50;4.23;;;2.53;;
18879;SDS011;9572;52.378;13.404;2023-03-12T06:10:17;8.50;;;2.37;;
18879;SDS011;9572;52.378;13.404;2023-03-12T06:12:44;4.57;;;2.67;;
18879;SDS011;9572;52.378;13.404;2023-03-12T06:15:11;3.47;;;2.00;;
18879;SDS011;9572;52.378;13.404;2023-03-12T06:17:38;4.07;;;2.10;;
18879;SDS011;9572;52.378;13.404;2023-03-12T06:20:05;5.50;;;2.30;;
18879;SDS011;9572;52.378;13.404;2023-03-12T06:22:33;7.70;;;2.03;;
18879;SDS011;9572;52.378;13.404;2023-03-12T06:25:01;3.83;;;2.00;;
18879;SDS011;9572;52.378;13.404;2023-03-12T06:27:29;3.50;;;1.90;;
18879;SDS011;9572;52.378;13.404;2023-03-12T06:29:56;6.50;;;1.80;;
18879;SDS011;9572;52.378;13.404;2023-03-12T06:32:23;6.67;;;1.90;;
18879;SDS011;9572;52.378;13.404;2023-03-12T06:34:50;4.13;;;1.92;;
18879;SDS011;9572;52.378;13.404;2023-03-12T06:37:16;4.17;;;1.73;;
18879;SDS011;9572;52.378;13.404;2023-03-12T06:39:43;2.47;;;1.60;;
18879;SDS011;9572;52.378;13.404;2023-03-12T06:42:11;2.97;;;1.70;;
18879;SDS011;9572;52.378;13.404;2023-03-12T06:44:39;4.63;;;1.20;;
18879;SDS011;9572;52.378;13.404;2023-03-12T06:47:06;2.40;;;1.47;;
18879;SDS011;9572;52.378;13.404;2023-03-12T06:49:33;3.33;;;1.60;;
18879;SDS011;9572;52.378;13.404;2023-03-12T06:52:00;3.23;;;1.43;;
18879;SDS011;9572;52.378;13.404;2023-03-12T06:54:27;7.47;;;1.50;;
18879;SDS011;9572;52.378;13.404;2023-03-12T06:56:54;2.17;;;1.43;;
18879;SDS011;9572;52.378;13.404;2023-03-12T06:59:24;6.50;;;2.43;;
18879;SDS011;9572;52.378;13.404;2023-03-12T07:01:52;6.33;;;1.70;;
18879;SDS011;9572;52.378;13.404;2023-03-12T07:04:19;3.87;;;1.37;;
18879;SDS011;9572;52.378;13.404;2023-03-12T07:06:46;2.97;;;1.50;;
18879;SDS011;9572;52.378;13.404;2023-03-12T07:09:15;4.93;;;2.10;;
18879;SDS011;9572;52.378;13.404;2023-03-12T07:11:42;4.17;;;1.73;;
18879;SDS011;9572;52.378;13.404;2023-03-12T07:14:09;3.03;;;1.60;;
18879;SDS011;9572;52.378;13.404;2023-03-12T07:16:37;4.63;;;1.43;;
18879;SDS011;9572;52.378;13.404;2023-03-12T07:19:04;4.50;;;1.97;;
18879;SDS011;9572;52.378;13.404;2023-03-12T07:21:31;5.80;;;2.10;;
18879;SDS011;9572;52.378;13.404;2023-03-12T07:23:58;5.67;;;1.90;;
18879;SDS011;9572;52.378;13.404;2023-03-12T07:26:30;4.07;;;1.80;;
18879;SDS011;9572;52.378;13.404;2023-03-12T07:28:58;4.63;;;1.70;;
18879;SDS011;9572;52.378;13.404;2023-03-12T07:31:24;3.00;;;1.30;;
18879;SDS011;9572;52.378;13.404;2023-03-12T07:33:53;5.67;;;2.00;;
18879;SDS011;9572;52.378;13.404;2023-03-12T07:36:19;5.93;;;1.53;;
18879;SDS011;9572;52.378;13.404;2023-03-12T07:38:46;2.13;;;1.50;;
18879;SDS011;9572;52.378;13.404;2023-03-12T07:41:13;3.90;;;2.33;;
18879;SDS011;9572;52.378;13.404;2023-03-12T07:43:40;3.00;;;2.10;;
18879;SDS011;9572;52.378;13.404;2023-03-12T07:46:07;6.23;;;2.17;;
18879;SDS011;9572;52.378;13.404;2023-03-12T07:48:34;4.83;;;2.40;;
18879;SDS011;9572;52.378;13.404;2023-03-12T07:51:02;2.80;;;1.80;;
18879;SDS011;9572;52.378;13.404;2023-03-12T07:53:29;6.73;;;2.30;;
18879;SDS011;9572;52.378;13.404;2023-03-12T07:55:56;6.87;;;2.23;;
18879;SDS011;9572;52.378;13.404;2023-03-12T07:58:23;3.73;;;2.00;;
18879;SDS011;9572;52.378;13.404;2023-03-12T08:00:50;4.67;;;2.10;;
18879;SDS011;9572;52.378;13.404;2023-03-12T08:03:19;4.67;;;2.20;;
18879;SDS011;9572;52.378;13.404;2023-03-12T08:05:53;4.97;;;2.40;;
18879;SDS011;9572;52.378;13.404;2023-03-12T08:08:23;4.70;;;2.30;;
18879;SDS011;9572;52.378;13.404;2023-03-12T08:10:50;4.67;;;2.27;;
18879;SDS011;9572;52.378;13.404;2023-03-12T08:13:17;6.37;;;2.53;;
18879;SDS011;9572;52.378;13.404;2023-03-12T08:15:44;8.10;;;2.50;;
18879;SDS011;9572;52.378;13.404;2023-03-12T08:18:11;2.83;;;2.10;;
18879;SDS011;9572;52.378;13.404;2023-03-12T08:20:37;11.77;;;2.77;;
18879;SDS011;9572;52.378;13.404;2023-03-12T08:23:04;5.27;;;2.10;;
18879;SDS011;9572;52.378;13.404;2023-03-12T08:25:32;4.07;;;2.10;;
18879;SDS011;9572;52.378;13.404;2023-03-12T08:28:00;7.23;;;2.33;;
18879;SDS011;9572;52.378;13.404;2023-03-12T08:30:28;3.70;;;2.13;;
18879;SDS011;9572;52.378;13.404;2023-03-12T08:32:55;3.47;;;1.83;;
18879;SDS011;9572;52.378;13.404;2023-03-12T08:35:22;4.00;;;2.10;;
18879;SDS011;9572;52.378;13.404;2023-03-12T08:37:49;7.60;;;2.10;;
18879;SDS011;9572;52.378;13.404;2023-03-12T08:40:16;3.70;;;1.97;;
18879;SDS011;9572;52.378;13.404;2023-03-12T08:42:44;2.80;;;1.77;;
18879;SDS011;9572;52.378;13.404;2023-03-12T08:45:12;3.43;;;2.13;;
18879;SDS011;9572;52.378;13.404;2023-03-12T08:47:39;5.70;;;1.90;;
18879;SDS011;9572;52.378;13.404;2023-03-12T08:50:08;4.97;;;2.10;;
18879;SDS011;9572;52.378;13.404;2023-03-12T08:52:36;4.53;;;1.67;;
18879;SDS011;9572;52.378;13.404;2023-03-12T08:55:03;4.30;;;2.00;;
18879;SDS011;9572;52.378;13.404;2023-03-12T08:57:31;2.97;;;1.80;;
18879;SDS011;9572;52.378;13.404;2023-03-12T08:59:59;3.27;;;1.87;;
18879;SDS011;9572;52.378;13.404;2023-03-12T09:02:26;4.70;;;2.77;;
18879;SDS011;9572;52.378;13.404;2023-03-12T09:04:53;6.83;;;2.40;;
18879;SDS011;9572;52.378;13.404;2023-03-12T09:07:20;5.70;;;1.80;;
18879;SDS011;9572;52.378;13.404;2023-03-12T09:09:47;3.10;;;1.80;;
18879;SDS011;9572;52.378;13.404;2023-03-12T09:12:14;4.90;;;2.00;;
18879;SDS011;9572;52.378;13.404;2023-03-12T09:14:40;2.50;;;1.60;;
18879;SDS011;9572;52.378;13.404;2023-03-12T09:17:09;4.53;;;2.13;;
18879;SDS011;9572;52.378;13.404;2023-03-12T09:19:36;3.70;;;1.97;;
18879;SDS011;9572;52.378;13.404;2023-03-12T09:22:02;2.63;;;1.80;;
18879;SDS011;9572;52.378;13.404;2023-03-12T09:24:29;3.60;;;1.70;;
18879;SDS011;9572;52.378;13.404;2023-03-12T09:26:56;2.87;;;1.70;;
18879;SDS011;9572;52.378;13.404;2023-03-12T09:29:23;4.43;;;1.73;;
18879;SDS011;9572;52.378;13.404;2023-03-12T09:31:50;3.77;;;1.90;;
18879;SDS011;9572;52.378;13.404;2023-03-12T09:34:18;4.20;;;1.87;;
18879;SDS011;9572;52.378;13.404;2023-03-12T09:36:45;5.60;;;2.03;;
18879;SDS011;9572;52.378;13.404;2023-03-12T09:39:12;8.77;;;2.03;;
18879;SDS011;9572;52.378;13.404;2023-03-12T09:41:39;2.60;;;1.63;;
18879;SDS011;9572;52.378;13.404;2023-03-12T09:44:10;3.57;;;1.50;;
18879;SDS011;9572;52.378;13.404;2023-03-12T09:46:42;4.10;;;1.50;;
18879;SDS011;9572;52.378;13.404;2023-03-12T09:49:13;6.90;;;1.40;;
18879;SDS011;9572;52.378;13.404;2023-03-12T09:51:46;2.33;;;1.40;;
18879;SDS011;9572;52.378;13.404;2023-03-12T09:54:20;1.70;;;1.10;;
18879;SDS011;9572;52.378;13.404;2023-03-12T09:56:53;4.50;;;1.40;;
18879;SDS011;9572;52.378;13.404;2023-03-12T09:59:23;3.50;;;1.40;;
18879;SDS011;9572;52.378;13.404;2023-03-12T10:01:50;2.83;;;1.17;;
18879;SDS011;9572;52.378;13.404;2023-03-12T10:04:23;5.27;;;1.40;;
18879;SDS011;9572;52.378;13.404;2023-03-12T10:07:01;3.10;;;1.17;;
18879;SDS011;9572;52.378;13.404;2023-03-12T10:09:38;5.97;;;1.00;;
18879;SDS011;9572;52.378;13.404;2023-03-12T10:12:28;3.40;;;1.30;;
18879;SDS011;9572;52.378;13.404;2023-03-12T10:15:16;6.17;;;1.30;;
18879;SDS011;9572;52.378;13.404;2023-03-12T10:17:55;8.40;;;1.17;;
18879;SDS011;9572;52.378;13.404;2023-03-12T10:20:35;5.33;;;1.00;;
18879;SDS011;9572;52.378;13.404;2023-03-12T10:23:23;10.60;;;1.60;;
18879;SDS011;9572;52.378;13.404;2023-03-12T10:25:57;3.60;;;1.50;;
18879;SDS011;9572;52.378;13.404;2023-03-12T10:28:30;3.90;;;1.33;;
18879;SDS011;9572;52.378;13.404;2023-03-12T10:31:02;5.50;;;1.30;;
18879;SDS011;9572;52.378;13.404;2023-03-12T10:33:36;2.63;;;1.77;;
18879;SDS011;9572;52.378;13.404;2023-03-12T10:36:12;5.30;;;1.10;;
18879;SDS011;9572;52.378;13.404;2023-03-12T10:38:44;5.57;;;1.60;;
18879;SDS011;9572;52.378;13.404;2023-03-12T10:41:17;10.30;;;1.83;;
18879;SDS011;9572;52.378;13.404;2023-03-12T10:43:46;6.37;;;1.63;;
18879;SDS011;9572;52.378;13.404;2023-03-12T10:49:28;2.63;;;1.50;;
18879;SDS011;9572;52.378;13.404;2023-03-12T10:51:58;3.23;;;1.50;;
18879;SDS011;9572;52.378;13.404;2023-03-12T10:54:32;6.83;;;1.73;;
18879;SDS011;9572;52.378;13.404;2023-03-12T10:57:01;4.00;;;1.53;;
18879;SDS011;9572;52.378;13.404;2023-03-12T10:59:29;6.40;;;1.70;;
18879;SDS011;9572;52.378;13.404;2023-03-12T11:01:58;3.63;;;1.67;;
18879;SDS011;9572;52.378;13.404;2023-03-12T11:04:27;5.13;;;1.20;;
18879;SDS011;9572;52.378;13.404;2023-03-12T11:07:02;2.67;;;1.30;;
18879;SDS011;9572;52.378;13.404;2023-03-12T11:09:32;2.80;;;1.57;;
18879;SDS011;9572;52.378;13.404;2023-03-12T11:11:59;3.93;;;1.53;;
18879;SDS011;9572;52.378;13.404;2023-03-12T11:14:26;2.83;;;1.90;;
18879;SDS011;9572;52.378;13.404;2023-03-12T11:16:55;4.57;;;2.13;;
18879;SDS011;9572;52.378;13.404;2023-03-12T11:19:43;6.90;;;2.03;;
18879;SDS011;9572;52.378;13.404;2023-03-12T11:22:10;3.83;;;1.60;;
18879;SDS011;9572;52.378;13.404;2023-03-12T11:24:53;3.90;;;2.10;;
18879;SDS011;9572;52.378;13.404;2023-03-12T11:27:23;9.90;;;2.27;;
18879;SDS011;9572;52.378;13.404;2023-03-12T11:30:02;2.93;;;1.83;;
18879;SDS011;9572;52.378;13.404;2023-03-12T11:32:31;3.37;;;2.17;;
18879;SDS011;9572;52.378;13.404;2023-03-12T11:35:02;5.40;;;2.30;;
18879;SDS011;9572;52.378;13.404;2023-03-12T11:37:36;8.27;;;2.23;;
18879;SDS011;9572;52.378;13.404;2023-03-12T11:40:13;4.43;;;2.20;;
18879;SDS011;9572;52.378;13.404;2023-03-12T11:42:55;5.37;;;1.90;;
18879;SDS011;9572;52.378;13.404;2023-03-12T11:45:39;5.80;;;2.10;;
18879;SDS011;9572;52.378;13.404;2023-03-12T11:48:15;6.30;;;1.90;;
18879;SDS011;9572;52.378;13.404;2023-03-12T11:50:54;4.63;;;2.00;;
18879;SDS011;9572;52.378;13.404;2023-03-12T11:53:34;5.67;;;2.00;;
18879;SDS011;9572;52.378;13.404;2023-03-12T11:56:13;5.77;;;1.80;;
18879;SDS011;9572;52.378;13.404;2023-03-12T11:58:51;4.10;;;2.23;;
18879;SDS011;9572;52.378;13.404;2023-03-12T12:01:28;2.30;;;1.87;;
18879;SDS011;9572;52.378;13.404;2023-03-12T12:04:15;3.90;;;2.00;;
18879;SDS011;9572;52.378;13.404;2023-03-12T12:07:10;4.97;;;2.07;;
18879;SDS011;9572;52.378;13.404;2023-03-12T12:09:47;3.63;;;1.83;;
18879;SDS011;9572;52.378;13.404;2023-03-12T12:12:26;6.37;;;1.97;;
18879;SDS011;9572;52.378;13.404;2023-03-12T12:15:06;5.77;;;2.10;;
18879;SDS011;9572;52.378;13.404;2023-03-12T12:17:43;7.07;;;1.87;;
18879;SDS011;9572;52.378;13.404;2023-03-12T12:20:24;4.67;;;1.90;;
18879;SDS011;9572;52.378;13.404;2023-03-12T12:23:09;5.00;;;1.77;;
18879;SDS011;9572;52.378;13.404;2023-03-12T12:25:45;2.43;;;1.47;;
18879;SDS011;9572;52.378;13.404;2023-03-12T12:28:29;3.90;;;1.90;;
18879;SDS011;9572;52.378;13.404;2023-03-12T12:31:20;6.73;;;2.10;;
18879;SDS011;9572;52.378;13.404;2023-03-12T12:37:09;7.83;;;1.90;;
18879;SDS011;9572;52.378;13.404;2023-03-12T12:39:48;2.17;;;1.50;;
18879;SDS011;9572;52.378;13.404;2023-03-12T12:42:24;3.70;;;1.77;;
18879;SDS011;9572;52.378;13.404;2023-03-12T12:44:55;4.00;;;1.40;;
18879;SDS011;9572;52.378;13.404;2023-03-12T12:47:30;2.60;;;1.40;;
18879;SDS011;9572;52.378;13.404;2023-03-12T12:50:04;3.07;;;1.80;;
18879;SDS011;9572;52.378;13.404;2023-03-12T12:52:32;4.27;;;1.80;;
18879;SDS011;9572;52.378;13.404;2023-03-12T12:55:02;3.07;;;1.43;;
18879;SDS011;9572;52.378;13.404;2023-03-12T12:57:37;5.67;;;1.63;;
18879;SDS011;9572;52.378;13.404;2023-03-12T13:00:17;3.53;;;1.70;;
18879;SDS011;9572;52.378;13.404;2023-03-12T13:02:48;1.87;;;1.40;;
18879;SDS011;9572;52.378;13.404;2023-03-12T13:05:18;3.57;;;1.87;;
18879;SDS011;9572;52.378;13.404;2023-03-12T13:07:46;2.40;;;1.33;;
18879;SDS011;9572;52.378;13.404;2023-03-12T13:13:08;2.07;;;1.20;;
18879;SDS011;9572;52.378;13.404;2023-03-12T13:15:38;4.53;;;1.50;;
18879;SDS011;9572;52.378;13.404;2023-03-12T13:18:08;4.17;;;1.47;;
18879;SDS011;9572;52.378;13.404;2023-03-12T13:21:04;2.10;;;1.00;;
18879;SDS011;9572;52.378;13.404;2023-03-12T13:23:42;3.97;;;1.03;;
18879;SDS011;9572;52.378;13.404;2023-03-12T13:26:22;2.70;;;0.80;;
18879;SDS011;9572;52.378;13.404;2023-03-12T13:28:56;2.87;;;0.90;;
18879;SDS011;9572;52.378;13.404;2023-03-12T13:31:33;3.23;;;0.90;;
18879;SDS011;9572;52.378;13.404;2023-03-12T13:37:19;1.53;;;0.80;;
18879;SDS011;9572;52.378;13.404;2023-03-12T13:40:36;1.63;;;0.70;;
18879;SDS011;9572;52.378;13.404;2023-03-12T13:46:26;2.73;;;0.70;;
18879;SDS011;9572;52.378;13.404;2023-03-12T13:49:10;0.63;;;0.57;;
18879;SDS011;9572;52.378;13.404;2023-03-12T13:51:44;1.43;;;0.50;;
18879;SDS011;9572;52.378;13.404;2023-03-12T13:54:18;1.87;;;0.83;;
18879;SDS011;9572;52.378;13.404;2023-03-12T13:56:53;4.57;;;0.93;;
18879;SDS011;9572;52.378;13.404;2023-03-12T13:59:27;3.37;;;0.80;;
18879;SDS011;9572;52.378;13.404;2023-03-12T14:01:57;2.07;;;0.70;;
18879;SDS011;9572;52.378;13.404;2023-03-12T14:04:33;2.87;;;0.70;;
18879;SDS011;9572;52.378;13.404;2023-03-12T14:10:02;2.87;;;0.87;;
18879;SDS011;9572;52.378;13.404;2023-03-12T14:12:45;3.43;;;1.10;;
18879;SDS011;9572;52.378;13.404;2023-03-12T14:15:26;1.20;;;0.80;;
18879;SDS011;9572;52.378;13.404;2023-03-12T14:17:57;2.40;;;0.80;;
18879;SDS011;9572;52.378;13.404;2023-03-12T14:20:26;3.77;;;1.07;;
18879;SDS011;9572;52.378;13.404;2023-03-12T14:22:54;2.03;;;1.00;;
18879;SDS011;9572;52.378;13.404;2023-03-12T14:25:28;2.93;;;0.97;;
18879;SDS011;9572;52.378;13.404;2023-03-12T14:27:58;5.23;;;0.83;;
18879;SDS011;9572;52.378;13.404;2023-03-12T14:30:30;4.90;;;0.80;;
18879;SDS011;9572;52.378;13.404;2023-03-12T14:33:06;2.13;;;0.70;;
18879;SDS011;9572;52.378;13.404;2023-03-12T14:35:37;1.43;;;0.70;;
18879;SDS011;9572;52.378;13.404;2023-03-12T14:38:10;4.70;;;1.10;;
18879;SDS011;9572;52.378;13.404;2023-03-12T14:40:42;4.67;;;1.07;;
18879;SDS011;9572;52.378;13.404;2023-03-12T14:43:23;2.60;;;0.90;;
18879;SDS011;9572;52.378;13.404;2023-03-12T14:45:56;4.83;;;1.23;;
18879;SDS011;9572;52.378;13.404;2023-03-12T14:48:26;1.77;;;0.80;;
18879;SDS011;9572;52.378;13.404;2023-03-12T14:50:55;3.10;;;0.90;;
18879;SDS011;9572;52.378;13.404;2023-03-12T14:53:23;1.90;;;0.90;;
18879;SDS011;9572;52.378;13.404;2023-03-12T14:55:58;2.50;;;1.00;;
18879;SDS011;9572;52.378;13.404;2023-03-12T14:58:26;2.40;;;0.80;;
18879;SDS011;9572;52.378;13.404;2023-03-12T15:00:54;9.10;;;1.20;;
18879;SDS011;9572;52.378;13.404;2023-03-12T15:03:24;3.17;;;1.03;;
18879;SDS011;9572;52.378;13.404;2023-03-12T15:05:52;1.90;;;0.80;;
18879;SDS011;9572;52.378;13.404;2023-03-12T15:08:19;1.97;;;1.20;;
18879;SDS011;9572;52.378;13.404;2023-03-12T15:10:47;5.03;;;1.30;;
18879;SDS011;9572;52.378;13.404;2023-03-12T15:13:15;2.33;;;1.20;;
18879;SDS011;9572;52.378;13.404;2023-03-12T15:15:45;5.70;;;1.20;;
18879;SDS011;9572;52.378;13.404;2023-03-12T15:18:16;3.67;;;1.63;;
18879;SDS011;9572;52.378;13.404;2023-03-12T15:20:46;4.63;;;1.43;;
18879;SDS011;9572;52.378;13.404;2023-03-12T15:23:14;3.23;;;1.20;;
18879;SDS011;9572;52.378;13.404;2023-03-12T15:25:43;3.47;;;1.50;;